Time;durP1;ratioP1;P1;durP2;ratioP2;P2;SDS_P1;SDS_P2;PMS_P1;PMS_P2;Temp;Humidity;BMP_temperature;BMP_pressure;BME280_temperature;BME280_humidity;BME280_pressure;Samples;Min_cycle;Max_cycle;Signal;HPM_P1;HPM_P2
2024/02/12 00:01:55;;;;;;;;;;;;;;;;;;5048305;28;20019;-86
2024/02/12 00:04:26;;;;;;;;;;;;;;;;;;5049467;28;19913;-86
2024/02/12 00:06:52;;;;;;;;;;;;;;;;;;5049449;28;19949;-86
2024/02/12 00:09:19;;;;;;;;;;;;;;;;;;5047140;28;19948;-87
2024/02/12 00:11:47;;;;;;;;;;;;;;;;;;5047558;28;20380;-87
2024/02/12 00:14:14;;;;;;;;;;;;;;;;;;5029770;28;19917;-86
2024/02/12 00:16:40;;;;;;;;;;;;;;;;;;5048475;28;19912;-86
2024/02/12 00:19:09;;;;;;;;;;;;;;;;;;5048054;28;19924;-86
2024/02/12 00:21:36;;;;;;;;;;;;;;;;;;5053350;28;19923;-86
2024/02/12 00:24:01;;;;;;;;;;;;;;;;;;5053144;28;20350;-85
2024/02/12 00:26:27;;;;;;;;;;;;;;;;;;5048638;28;19924;-85
2024/02/12 00:28:56;;;;;;;;;;;;;;;;;;5047987;28;20371;-85
2024/02/12 00:31:23;;;;;;;;;;;;;;;;;;5047256;28;19917;-85
2024/02/12 00:33:48;;;;;;;;;;;;;;;;;;5063507;28;20328;-86
2024/02/12 00:36:14;;;;;;;;;;;;;;;;;;5050668;28;20447;-85
2024/02/12 00:38:40;;;;;;;;;;;;;;;;;;5051960;28;19941;-85
2024/02/12 00:41:06;;;;;;;;;;;;;;;;;;5046463;28;19913;-85
2024/02/12 00:43:32;;;;;;;;;;;;;;;;;;5028134;28;19923;-86
2024/02/12 00:45:59;;;;;;;;;;;;;;;;;;5043642;28;19913;-86
2024/02/12 00:48:25;;;;;;;;;;;;;;;;;;5049716;28;19928;-85
2024/02/12 00:50:51;;;;;;;;;;;;;;;;;;5048375;28;19920;-86
2024/02/12 00:53:18;;;;;;;;;;;;;;;;;;5047827;28;20011;-85
2024/02/12 00:55:46;;;;;;;;;;;;;;;;;;5054141;28;19917;-85
2024/02/12 00:58:12;;;;;;;;;;;;;;;;;;5032687;28;19916;-86
2024/02/12 01:00:38;;;;;;;;;;;;;;;;;;5047665;28;19919;-85
2024/02/12 01:03:05;;;;;;;;;;;;;;;;;;5045961;28;19924;-85
2024/02/12 01:05:31;;;;;;;;;;;;;;;;;;5046661;28;20295;-85
2024/02/12 01:07:57;;;;;;;;;;;;;;;;;;5047888;28;20393;-84
2024/02/12 01:10:23;;;;;;;;;;;;;;;;;;5045962;28;20686;-86
2024/02/12 01:12:49;;;;;;;;;;;;;;;;;;5047635;28;20320;-85
2024/02/12 01:15:15;;;;;;;;;;;;;;;;;;5045225;28;19917;-85
2024/02/12 01:17:41;;;;;;;;;;;;;;;;;;5054691;28;19923;-86
2024/02/12 01:20:11;;;;;;;;;;;;;;;;;;5059591;28;19920;-85
2024/02/12 01:22:38;;;;;;;;;;;;;;;;;;5046991;28;19966;-86
2024/02/12 01:25:04;;;;;;;;;;;;;;;;;;5046976;28;19951;-85
2024/02/12 01:27:30;;;;;;;;;;;;;;;;;;5052291;28;19921;-85
2024/02/12 01:29:56;;;;;;;;;;;;;;;;;;5050085;28;19913;-85
2024/02/12 01:32:24;;;;;;;;;;;;;;;;;;5050298;28;19920;-86
2024/02/12 01:34:49;;;;;;;;;;;;;;;;;;5051682;28;20003;-86
2024/02/12 01:37:16;;;;;;;;;;;;;;;;;;5047371;28;20015;-85
2024/02/12 01:39:41;;;;;;;;;;;;;;;;;;5052272;28;19909;-85
2024/02/12 01:42:08;;;;;;;;;;;;;;;;;;5060562;28;19913;-85
2024/02/12 01:44:34;;;;;;;;;;;;;;;;;;5050440;28;20367;-85
2024/02/12 01:47:00;;;;;;;;;;;;;;;;;;5053488;28;20053;-86
2024/02/12 01:49:26;;;;;;;;;;;;;;;;;;5049339;28;19916;-85
2024/02/12 01:51:52;;;;;;;;;;;;;;;;;;5054365;28;19916;-86
2024/02/12 01:54:19;;;;;;;;;;;;;;;;;;5050426;28;19959;-85
2024/02/12 01:56:47;;;;;;;;;;;;;;;;;;5059003;28;20054;-86
2024/02/12 01:59:19;;;;;;;;;;;;;;;;;;5049315;28;20026;-85
2024/02/12 02:01:45;;;;;;;;;;;;;;;;;;5049612;28;20813;-85
2024/02/12 02:04:12;;;;;;;;;;;;;;;;;;5051629;28;19955;-86
2024/02/12 02:06:37;;;;;;;;;;;;;;;;;;5050603;28;19917;-85
2024/02/12 02:09:03;;;;;;;;;;;;;;;;;;5051219;28;19923;-85
2024/02/12 02:11:29;;;;;;;;;;;;;;;;;;5049076;28;19917;-86
2024/02/12 02:13:55;;;;;;;;;;;;;;;;;;5052355;28;19924;-85
2024/02/12 02:16:21;;;;;;;;;;;;;;;;;;5050257;28;19912;-84
2024/02/12 02:18:50;;;;;;;;;;;;;;;;;;5050548;28;20401;-85
2024/02/12 02:21:15;;;;;;;;;;;;;;;;;;5051247;28;20373;-84
2024/02/12 02:23:41;;;;;;;;;;;;;;;;;;5050036;28;20004;-84
2024/02/12 02:26:07;;;;;;;;;;;;;;;;;;5051049;28;19913;-85
2024/02/12 02:28:33;;;;;;;;;;;;;;;;;;5033210;28;20373;-85
2024/02/12 02:30:59;;;;;;;;;;;;;;;;;;5049841;28;20393;-86
2024/02/12 02:33:25;;;;;;;;;;;;;;;;;;5032345;28;19920;-85
2024/02/12 02:35:52;;;;;;;;;;;;;;;;;;5050729;28;19931;-87
2024/02/12 02:38:18;;;;;;;;;;;;;;;;;;5054159;28;19919;-85
2024/02/12 02:40:44;;;;;;;;;;;;;;;;;;5057965;28;20410;-85
2024/02/12 02:43:09;;;;;;;;;;;;;;;;;;5051859;28;20322;-85
2024/02/12 02:45:35;;;;;;;;;;;;;;;;;;5054491;28;19939;-85
2024/02/12 02:48:04;;;;;;;;;;;;;;;;;;5049204;28;19999;-86
2024/02/12 02:50:30;;;;;;;;;;;;;;;;;;5050321;28;19916;-86
2024/02/12 02:52:56;;;;;;;;;;;;;;;;;;5049642;28;19917;-85
2024/02/12 02:55:22;;;;;;;;;;;;;;;;;;5047448;28;19928;-85
2024/02/12 02:57:48;;;;;;;;;;;;;;;;;;5050032;28;19959;-85
2024/02/12 03:00:15;;;;;;;;;;;;;;;;;;5051701;28;19947;-87
2024/02/12 03:02:41;;;;;;;;;;;;;;;;;;5056388;28;19920;-86
2024/02/12 03:05:08;;;;;;;;;;;;;;;;;;5050073;28;19916;-87
2024/02/12 03:07:36;;;;;;;;;;;;;;;;;;5050858;28;19912;-84
2024/02/12 03:10:02;;;;;;;;;;;;;;;;;;5047896;28;20063;-85
2024/02/12 03:12:30;;;;;;;;;;;;;;;;;;5050057;28;20051;-85
2024/02/12 03:14:56;;;;;;;;;;;;;;;;;;5051161;28;19916;-85
2024/02/12 03:17:22;;;;;;;;;;;;;;;;;;5050013;28;19913;-85
2024/02/12 03:19:48;;;;;;;;;;;;;;;;;;5046244;28;19917;-85
2024/02/12 03:22:14;;;;;;;;;;;;;;;;;;5051427;28;20374;-85
2024/02/12 03:24:40;;;;;;;;;;;;;;;;;;5048816;28;19936;-85
2024/02/12 03:27:05;;;;;;;;;;;;;;;;;;5053626;28;19978;-85
2024/02/12 03:29:32;;;;;;;;;;;;;;;;;;5051027;28;19935;-88
2024/02/12 03:31:58;;;;;;;;;;;;;;;;;;5049911;28;20331;-87
2024/02/12 03:34:29;;;;;;;;;;;;;;;;;;5049239;28;20024;-86
2024/02/12 03:36:55;;;;;;;;;;;;;;;;;;5046736;28;19924;-86
2024/02/12 03:39:21;;;;;;;;;;;;;;;;;;5058259;28;21193;-86
2024/02/12 03:41:47;;;;;;;;;;;;;;;;;;5050303;28;19917;-86
2024/02/12 03:44:13;;;;;;;;;;;;;;;;;;5050397;28;20003;-88
2024/02/12 03:46:45;;;;;;;;;;;;;;;;;;5051009;28;19924;-87
2024/02/12 04:00:16;;;;;;;;;;;;;;;;;;5045598;28;20283;-86
2024/02/12 04:02:42;;;;;;;;;;;;;;;;;;5047386;28;19925;-86
2024/02/12 04:05:09;;;;;;;;;;;;;;;;;;5047533;28;20398;-85
2024/02/12 04:07:35;;;;;;;;;;;;;;;;;;5036652;28;19920;-86
2024/02/12 04:10:01;;;;;;;;;;;;;;;;;;5047429;28;19913;-85
2024/02/12 04:12:27;;;;;;;;;;;;;;;;;;5030289;28;19920;-85
2024/02/12 04:14:55;;;;;;;;;;;;;;;;;;5047306;28;19913;-85
2024/02/12 04:17:21;;;;;;;;;;;;;;;;;;5058114;28;20035;-86
2024/02/12 04:19:48;;;;;;;;;;;;;;;;;;5050024;28;20508;-86
2024/02/12 04:22:17;;;;;;;;;;;;;;;;;;5055842;28;19912;-86
2024/02/12 04:24:43;;;;;;;;;;;;;;;;;;5048976;28;19917;-85
2024/02/12 04:27:09;;;;;;;;;;;;;;;;;;5046733;28;20417;-86
2024/02/12 04:29:36;;;;;;;;;;;;;;;;;;5055316;28;20378;-86
2024/02/12 04:32:03;;;;;;;;;;;;;;;;;;5051756;28;20000;-86
2024/02/12 04:34:29;;;;;;;;;;;;;;;;;;5047418;28;20333;-86
2024/02/12 04:36:57;;;;;;;;;;;;;;;;;;5048282;28;19920;-86
2024/02/12 04:39:23;;;;;;;;;;;;;;;;;;5042119;28;19913;-86
2024/02/12 04:41:52;;;;;;;;;;;;;;;;;;5048846;28;19912;-85
2024/02/12 04:44:18;;;;;;;;;;;;;;;;;;5031173;28;19966;-86
2024/02/12 04:46:45;;;;;;;;;;;;;;;;;;5048012;28;19916;-87
2024/02/12 04:49:11;;;;;;;;;;;;;;;;;;5048149;28;19913;-86
2024/02/12 04:51:37;;;;;;;;;;;;;;;;;;5047651;28;19916;-86
2024/02/12 04:54:03;;;;;;;;;;;;;;;;;;5047399;28;19913;-86
2024/02/12 04:56:28;;;;;;;;;;;;;;;;;;5047232;28;19917;-85
2024/02/12 04:58:54;;;;;;;;;;;;;;;;;;5048173;28;20153;-86
2024/02/12 05:01:20;;;;;;;;;;;;;;;;;;5046491;28;19919;-85
2024/02/12 05:03:46;;;;;;;;;;;;;;;;;;5047669;28;19924;-85
2024/02/12 05:06:12;;;;;;;;;;;;;;;;;;5048310;28;19913;-85
2024/02/12 05:08:38;;;;;;;;;;;;;;;;;;5047342;28;20398;-86
2024/02/12 05:11:04;;;;;;;;;;;;;;;;;;5046603;28;19913;-85
2024/02/12 05:13:30;;;;;;;;;;;;;;;;;;5050846;28;19924;-86
2024/02/12 05:15:56;;;;;;;;;;;;;;;;;;5046638;28;19916;-85
2024/02/12 05:23:52;;;;;;;;;;;;;;;;;;5054920;28;20336;-85
2024/02/12 05:26:18;;;;;;;;;;;;;;;;;;5047721;28;19920;-86
2024/02/12 05:28:44;;;;;;;;;;;;;;;;;;5047065;28;20379;-85
2024/02/12 05:31:10;;;;;;;;;;;;;;;;;;5046418;28;20327;-88
2024/02/12 05:33:36;;;;;;;;;;;;;;;;;;5045472;28;19916;-86
2024/02/12 05:36:04;;;;;;;;;;;;;;;;;;5047594;28;20338;-88
2024/02/12 05:38:33;;;;;;;;;;;;;;;;;;5049894;28;19952;-88
2024/02/12 05:41:00;;;;;;;;;;;;;;;;;;5045459;28;19958;-84
2024/02/12 05:43:26;;;;;;;;;;;;;;;;;;5024649;28;19920;-85
2024/02/12 05:45:51;;;;;;;;;;;;;;;;;;5049448;28;19917;-85
2024/02/12 05:48:17;;;;;;;;;;;;;;;;;;5058352;28;19921;-84
2024/02/12 05:50:44;;;;;;;;;;;;;;;;;;5045618;28;19977;-85
2024/02/12 05:53:10;;;;;;;;;;;;;;;;;;5046310;28;19916;-85
2024/02/12 05:55:36;;;;;;;;;;;;;;;;;;5046131;28;20398;-85
2024/02/12 05:58:02;;;;;;;;;;;;;;;;;;5046767;28;19938;-84
2024/02/12 06:00:28;;;;;;;;;;;;;;;;;;5046428;28;19996;-85
2024/02/12 06:02:54;;;;;;;;;;;;;;;;;;5044589;28;19925;-84
2024/02/12 06:05:20;;;;;;;;;;;;;;;;;;5044241;28;19987;-83
2024/02/12 06:07:45;;;;;;;;;;;;;;;;;;5042983;28;19916;-84
2024/02/12 06:10:11;;;;;;;;;;;;;;;;;;5039531;28;19913;-83
2024/02/12 06:12:37;;;;;;;;;;;;;;;;;;5049843;28;19917;-84
2024/02/12 06:15:03;;;;;;;;;;;;;;;;;;5049334;28;20382;-84
2024/02/12 06:17:31;;;;;;;;;;;;;;;;;;5050648;28;19996;-84
2024/02/12 06:19:56;;;;;;;;;;;;;;;;;;5051894;28;19920;-84
2024/02/12 06:22:22;;;;;;;;;;;;;;;;;;5049783;28;20149;-84
2024/02/12 06:24:48;;;;;;;;;;;;;;;;;;5050200;28;19919;-83
2024/02/12 06:27:14;;;;;;;;;;;;;;;;;;5049719;28;19939;-83
2024/02/12 06:29:40;;;;;;;;;;;;;;;;;;5049705;28;20461;-83
2024/02/12 06:32:13;;;;;;;;;;;;;;;;;;5032054;28;20385;-84
2024/02/12 06:34:39;;;;;;;;;;;;;;;;;;5049032;28;19941;-84
2024/02/12 06:37:05;;;;;;;;;;;;;;;;;;5048998;28;20508;-84
2024/02/12 06:39:31;;;;;;;;;;;;;;;;;;5052111;28;20336;-84
2024/02/12 06:41:57;;;;;;;;;;;;;;;;;;5050253;28;19920;-84
2024/02/12 06:44:23;;;;;;;;;;;;;;;;;;5048465;28;20333;-83
2024/02/12 06:46:49;;;;;;;;;;;;;;;;;;5049712;28;19916;-84
2024/02/12 06:49:17;;;;;;;;;;;;;;;;;;5049877;28;20000;-84
2024/02/12 06:51:42;;;;;;;;;;;;;;;;;;5050279;28;19952;-84
2024/02/12 06:54:08;;;;;;;;;;;;;;;;;;5049306;28;20398;-84
2024/02/12 06:56:34;;;;;;;;;;;;;;;;;;5049634;28;20322;-84
2024/02/12 06:59:01;;;;;;;;;;;;;;;;;;5049199;28;20444;-84
2024/02/12 07:01:27;;;;;;;;;;;;;;;;;;5048572;28;19959;-84
2024/02/12 07:03:54;;;;;;;;;;;;;;;;;;5049050;28;20371;-83
2024/02/12 07:06:21;;;;;;;;;;;;;;;;;;5050239;28;20516;-84
2024/02/12 07:08:47;;;;;;;;;;;;;;;;;;5050390;28;19970;-84
2024/02/12 07:11:14;;;;;;;;;;;;;;;;;;5053462;28;20318;-84
2024/02/12 07:13:40;;;;;;;;;;;;;;;;;;5056832;28;20634;-83
2024/02/12 07:16:06;;;;;;;;;;;;;;;;;;5053125;28;20016;-84
2024/02/12 07:18:32;;;;;;;;;;;;;;;;;;5041272;28;20374;-85
2024/02/12 07:20:58;;;;;;;;;;;;;;;;;;5049777;28;20367;-84
2024/02/12 07:23:24;;;;;;;;;;;;;;;;;;5048550;28;19962;-84
2024/02/12 07:25:49;;;;;;;;;;;;;;;;;;5065404;28;19920;-84
2024/02/12 07:28:15;;;;;;;;;;;;;;;;;;5051735;28;19943;-84
2024/02/12 07:30:43;;;;;;;;;;;;;;;;;;5049478;28;20244;-84
2024/02/12 07:33:08;;;;;;;;;;;;;;;;;;5049996;28;19952;-84
2024/02/12 07:35:34;;;;;;;;;;;;;;;;;;5048612;28;20002;-85
2024/02/12 07:38:01;;;;;;;;;;;;;;;;;;5038421;28;19920;-84
2024/02/12 07:40:30;;;;;;;;;;;;;;;;;;5049160;28;19913;-85
2024/02/12 07:42:56;;;;;;;;;;;;;;;;;;5059024;28;19909;-84
2024/02/12 07:45:22;;;;;;;;;;;;;;;;;;5069175;28;20045;-84
2024/02/12 07:47:48;;;;;;;;;;;;;;;;;;5063391;28;19925;-85
2024/02/12 07:50:14;;;;;;;;;;;;;;;;;;5047837;28;19928;-88
2024/02/12 07:52:40;;;;;;;;;;;;;;;;;;5027139;28;19908;-87
2024/02/12 07:55:06;;;;;;;;;;;;;;;;;;5061267;28;19959;-89
2024/02/12 07:57:32;;;;;;;;;;;;;;;;;;5060229;28;19908;-88
2024/02/12 07:59:58;;;;;;;;;;;;;;;;;;5056754;28;19923;-87
2024/02/12 08:02:23;;;;;;;;;;;;;;;;;;5049976;28;19913;-87
2024/02/12 08:04:49;;;;;;;;;;;;;;;;;;5031899;28;20283;-86
2024/02/12 08:07:15;;;;;;;;;;;;;;;;;;5059743;28;20002;-87
2024/02/12 08:09:41;;;;;;;;;;;;;;;;;;5049194;28;20321;-86
2024/02/12 08:12:08;;;;;;;;;;;;;;;;;;5049564;28;20271;-86
2024/02/12 08:14:34;;;;;;;;;;;;;;;;;;5031562;28;19925;-85
2024/02/12 08:16:59;;;;;;;;;;;;;;;;;;5059212;28;20582;-84
2024/02/12 08:19:25;;;;;;;;;;;;;;;;;;5069353;28;19912;-87
2024/02/12 08:21:52;;;;;;;;;;;;;;;;;;5051017;28;19921;-90
2024/02/12 08:24:18;;;;;;;;;;;;;;;;;;5051708;28;19921;-87
2024/02/12 08:26:44;;;;;;;;;;;;;;;;;;5047248;28;19916;-87
2024/02/12 08:29:10;;;;;;;;;;;;;;;;;;5064129;28;19916;-86
2024/02/12 08:31:36;;;;;;;;;;;;;;;;;;5050329;28;19908;-89
2024/02/12 08:34:03;;;;;;;;;;;;;;;;;;5050195;28;19908;-86
2024/02/12 08:36:29;;;;;;;;;;;;;;;;;;5045918;28;19967;-87
2024/02/12 08:38:55;;;;;;;;;;;;;;;;;;5049807;28;19920;-86
2024/02/12 08:41:22;;;;;;;;;;;;;;;;;;5049441;28;19913;-88
2024/02/12 08:43:49;;;;;;;;;;;;;;;;;;5046860;28;19966;-84
2024/02/12 08:46:15;;;;;;;;;;;;;;;;;;5048430;28;19920;-84
2024/02/12 08:48:40;;;;;;;;;;;;;;;;;;5023798;28;19917;-85
2024/02/12 08:51:08;;;;;;;;;;;;;;;;;;5046017;28;19956;-84
2024/02/12 08:53:34;;;;;;;;;;;;;;;;;;5047409;28;21051;-84
2024/02/12 08:56:00;;;;;;;;;;;;;;;;;;5058920;28;19908;-84
2024/02/12 08:58:26;;;;;;;;;;;;;;;;;;5055399;28;19921;-85
2024/02/12 09:00:53;;;;;;;;;;;;;;;;;;5057565;28;19917;-84
2024/02/12 09:03:19;;;;;;;;;;;;;;;;;;5054179;28;19921;-84
2024/02/12 09:05:45;;;;;;;;;;;;;;;;;;5056746;28;19917;-84
2024/02/12 09:08:11;;;;;;;;;;;;;;;;;;5055209;28;19916;-83
2024/02/12 09:10:37;;;;;;;;;;;;;;;;;;5055466;28;19921;-84
2024/02/12 09:13:05;;;;;;;;;;;;;;;;;;5055786;28;19912;-84
2024/02/12 09:15:31;;;;;;;;;;;;;;;;;;5056359;28;19963;-83
2024/02/12 09:17:58;;;;;;;;;;;;;;;;;;5056448;28;19912;-85
2024/02/12 09:20:24;;;;;;;;;;;;;;;;;;5057838;28;19912;-84
2024/02/12 09:22:51;;;;;;;;;;;;;;;;;;5060693;28;19962;-84
2024/02/12 09:25:17;;;;;;;;;;;;;;;;;;5055347;28;19916;-84
2024/02/12 09:27:45;;;;;;;;;;;;;;;;;;5054718;28;19931;-83
2024/02/12 09:30:11;;;;;;;;;;;;;;;;;;5056709;28;19908;-85
2024/02/12 09:32:38;;;;;;;;;;;;;;;;;;5057568;28;19916;-84
2024/02/12 09:35:04;;;;;;;;;;;;;;;;;;5054398;28;19917;-84
2024/02/12 09:37:32;;;;;;;;;;;;;;;;;;5051259;28;19967;-84
2024/02/12 09:39:58;;;;;;;;;;;;;;;;;;5054611;28;19921;-84
2024/02/12 09:42:24;;;;;;;;;;;;;;;;;;5054963;28;19991;-84
2024/02/12 09:44:49;;;;;;;;;;;;;;;;;;5052363;28;20564;-84
2024/02/12 09:47:18;;;;;;;;;;;;;;;;;;5054986;28;20006;-84
2024/02/12 09:49:44;;;;;;;;;;;;;;;;;;5057922;28;19916;-83
2024/02/12 09:52:11;;;;;;;;;;;;;;;;;;5055282;28;20008;-84
2024/02/12 09:54:38;;;;;;;;;;;;;;;;;;5057280;28;19913;-85
2024/02/12 09:57:04;;;;;;;;;;;;;;;;;;5057162;28;19952;-88
2024/02/12 09:59:31;;;;;;;;;;;;;;;;;;5059601;28;19913;-84
2024/02/12 10:01:57;;;;;;;;;;;;;;;;;;5059055;28;20370;-84
2024/02/12 10:04:23;;;;;;;;;;;;;;;;;;5060613;28;19954;-85
2024/02/12 10:06:49;;;;;;;;;;;;;;;;;;5058398;28;19916;-85
2024/02/12 10:09:15;;;;;;;;;;;;;;;;;;5058725;28;19913;-85
2024/02/12 10:11:42;;;;;;;;;;;;;;;;;;5059495;28;19951;-85
2024/02/12 10:14:07;;;;;;;;;;;;;;;;;;5060054;28;19920;-85
2024/02/12 10:16:33;;;;;;;;;;;;;;;;;;5058313;28;19916;-86
2024/02/12 10:18:59;;;;;;;;;;;;;;;;;;5057777;28;19929;-86
2024/02/12 10:21:25;;;;;;;;;;;;;;;;;;5058026;28;19917;-85
2024/02/12 10:23:54;;;;;;;;;;;;;;;;;;5057242;28;19920;-85
2024/02/12 10:26:20;;;;;;;;;;;;;;;;;;5056092;28;19917;-84
2024/02/12 10:28:46;;;;;;;;;;;;;;;;;;5059355;28;19924;-85
2024/02/12 10:31:12;;;;;;;;;;;;;;;;;;5058537;28;20015;-85
2024/02/12 10:33:37;;;;;;;;;;;;;;;;;;5057925;28;20386;-86
2024/02/12 10:36:03;;;;;;;;;;;;;;;;;;5057900;28;19928;-85
2024/02/12 10:38:29;;;;;;;;;;;;;;;;;;5058387;28;19921;-84
2024/02/12 10:40:55;;;;;;;;;;;;;;;;;;5058589;28;19966;-86
2024/02/12 10:43:21;;;;;;;;;;;;;;;;;;5058003;28;19921;-85
2024/02/12 10:45:47;;;;;;;;;;;;;;;;;;5054475;28;19913;-85
2024/02/12 10:48:13;;;;;;;;;;;;;;;;;;5057388;28;19916;-86
2024/02/12 10:50:40;;;;;;;;;;;;;;;;;;5059371;28;20141;-85
2024/02/12 10:53:06;;;;;;;;;;;;;;;;;;5059805;28;20286;-86
2024/02/12 10:55:33;;;;;;;;;;;;;;;;;;5060641;28;19917;-86
2024/02/12 10:58:00;;;;;;;;;;;;;;;;;;5055593;28;19913;-85
2024/02/12 11:00:26;;;;;;;;;;;;;;;;;;5058597;28;19964;-86
2024/02/12 11:02:52;;;;;;;;;;;;;;;;;;5058786;28;20396;-86
2024/02/12 11:05:18;;;;;;;;;;;;;;;;;;5049763;28;19952;-86
2024/02/12 11:07:44;;;;;;;;;;;;;;;;;;5056749;28;20390;-86
2024/02/12 11:10:10;;;;;;;;;;;;;;;;;;5059231;28;19916;-85
2024/02/12 11:12:36;;;;;;;;;;;;;;;;;;5058057;28;19916;-85
2024/02/12 11:15:10;;;;;;;;;;;;;;;;;;5041726;28;19949;-86
2024/02/12 11:17:35;;;;;;;;;;;;;;;;;;5060082;28;19917;-86
2024/02/12 11:20:05;;;;;;;;;;;;;;;;;;5056988;28;19943;-85
2024/02/12 11:22:31;;;;;;;;;;;;;;;;;;5057607;28;19917;-87
2024/02/12 11:24:59;;;;;;;;;;;;;;;;;;5058064;28;20373;-86
2024/02/12 11:27:27;;;;;;;;;;;;;;;;;;5057722;28;19963;-85
2024/02/12 11:29:55;;;;;;;;;;;;;;;;;;5056473;28;21277;-87
2024/02/12 11:32:21;;;;;;;;;;;;;;;;;;5058652;28;19935;-87
2024/02/12 11:34:47;;;;;;;;;;;;;;;;;;5056327;28;19924;-90
2024/02/12 11:37:13;;;;;;;;;;;;;;;;;;5057263;28;19919;-87
2024/02/12 11:39:39;;;;;;;;;;;;;;;;;;5058856;28;19913;-89
2024/02/12 11:42:05;;;;;;;;;;;;;;;;;;5059695;28;20345;-88
2024/02/12 11:44:31;;;;;;;;;;;;;;;;;;5057636;28;19917;-87
2024/02/12 11:46:59;;;;;;;;;;;;;;;;;;5065291;28;20023;-87
2024/02/12 11:49:24;;;;;;;;;;;;;;;;;;5058001;28;19912;-87
2024/02/12 11:51:51;;;;;;;;;;;;;;;;;;5061278;28;19931;-89
2024/02/12 11:54:17;;;;;;;;;;;;;;;;;;5062883;28;20313;-86
2024/02/12 11:56:43;;;;;;;;;;;;;;;;;;5064387;28;20993;-87
2024/02/12 11:59:09;;;;;;;;;;;;;;;;;;5059834;28;19916;-89
2024/02/12 12:01:35;;;;;;;;;;;;;;;;;;5058113;28;19955;-88
2024/02/12 12:04:01;;;;;;;;;;;;;;;;;;5057749;28;19916;-87
2024/02/12 12:06:27;;;;;;;;;;;;;;;;;;5054728;28;20310;-88
2024/02/12 12:08:53;;;;;;;;;;;;;;;;;;5059983;28;19974;-91
2024/02/12 12:11:20;;;;;;;;;;;;;;;;;;5066960;28;19924;-90
2024/02/12 12:13:46;;;;;;;;;;;;;;;;;;5074046;28;19921;-89
2024/02/12 12:16:12;;;;;;;;;;;;;;;;;;5070903;28;19919;-88
2024/02/12 12:18:38;;;;;;;;;;;;;;;;;;5069335;28;19951;-90
2024/02/12 12:21:07;;;;;;;;;;;;;;;;;;5063912;28;19971;-89
2024/02/12 12:23:33;;;;;;;;;;;;;;;;;;5052851;28;19912;-91
2024/02/12 12:25:59;;;;;;;;;;;;;;;;;;5062721;28;20187;-88
2024/02/12 12:28:25;;;;;;;;;;;;;;;;;;5063032;28;19921;-89
2024/02/12 12:30:54;;;;;;;;;;;;;;;;;;5051141;28;19928;-86
2024/02/12 12:33:21;;;;;;;;;;;;;;;;;;5062498;28;19920;-87
2024/02/12 12:35:47;;;;;;;;;;;;;;;;;;5058669;28;19916;-86
2024/02/12 12:38:14;;;;;;;;;;;;;;;;;;5033892;28;19912;-86
2024/02/12 12:40:41;;;;;;;;;;;;;;;;;;5057412;28;19962;-86
2024/02/12 12:43:08;;;;;;;;;;;;;;;;;;5056420;28;20337;-86
2024/02/12 12:45:34;;;;;;;;;;;;;;;;;;5055800;28;19916;-84
2024/02/12 12:48:00;;;;;;;;;;;;;;;;;;5055401;28;19924;-86
2024/02/12 12:50:26;;;;;;;;;;;;;;;;;;5056674;28;19931;-85
2024/02/12 12:52:52;;;;;;;;;;;;;;;;;;5054770;28;19921;-85
2024/02/12 12:55:18;;;;;;;;;;;;;;;;;;5062333;28;20398;-86
2024/02/12 12:57:44;;;;;;;;;;;;;;;;;;5057838;28;19917;-86
2024/02/12 13:00:18;;;;;;;;;;;;;;;;;;5059156;28;20011;-86
2024/02/12 13:02:44;;;;;;;;;;;;;;;;;;5056977;28;19921;-87
2024/02/12 13:05:10;;;;;;;;;;;;;;;;;;5057017;28;19912;-87
2024/02/12 13:07:37;;;;;;;;;;;;;;;;;;5057565;28;19932;-87
2024/02/12 13:10:03;;;;;;;;;;;;;;;;;;5057565;28;19940;-87
2024/02/12 13:12:32;;;;;;;;;;;;;;;;;;5058372;28;19912;-86
2024/02/12 13:14:58;;;;;;;;;;;;;;;;;;5056543;28;19913;-87
2024/02/12 13:17:24;;;;;;;;;;;;;;;;;;5057286;28;20385;-87
2024/02/12 13:19:50;;;;;;;;;;;;;;;;;;5058026;28;19913;-87
2024/02/12 13:22:16;;;;;;;;;;;;;;;;;;5059700;28;19916;-86
2024/02/12 13:24:43;;;;;;;;;;;;;;;;;;5059357;28;19992;-87
2024/02/12 13:27:10;;;;;;;;;;;;;;;;;;5064149;28;19938;-86
2024/02/12 13:29:36;;;;;;;;;;;;;;;;;;5061768;28;19916;-87
2024/02/12 13:32:02;;;;;;;;;;;;;;;;;;5058648;28;20292;-87
2024/02/12 13:34:31;;;;;;;;;;;;;;;;;;5059493;28;20394;-87
2024/02/12 13:36:57;;;;;;;;;;;;;;;;;;5059912;28;19947;-87
2024/02/12 13:39:25;;;;;;;;;;;;;;;;;;5053724;28;20358;-87
2024/02/12 13:41:51;;;;;;;;;;;;;;;;;;5059176;28;19931;-87
2024/02/12 13:44:17;;;;;;;;;;;;;;;;;;5060002;28;19917;-87
2024/02/12 13:46:43;;;;;;;;;;;;;;;;;;5061070;28;19928;-86
2024/02/12 13:49:09;;;;;;;;;;;;;;;;;;5055766;28;19966;-88
2024/02/12 13:51:35;;;;;;;;;;;;;;;;;;5063497;28;19917;-87
2024/02/12 13:54:01;;;;;;;;;;;;;;;;;;5056954;28;19917;-87
2024/02/12 13:56:27;;;;;;;;;;;;;;;;;;5059208;28;20587;-87
2024/02/12 13:58:59;;;;;;;;;;;;;;;;;;5060340;28;20342;-89
2024/02/12 14:01:25;;;;;;;;;;;;;;;;;;5059015;28;19909;-87
2024/02/12 14:03:51;;;;;;;;;;;;;;;;;;5061308;28;19916;-86
2024/02/12 14:06:16;;;;;;;;;;;;;;;;;;5060443;28;20003;-87
2024/02/12 14:08:42;;;;;;;;;;;;;;;;;;5059959;28;19939;-87
2024/02/12 14:11:09;;;;;;;;;;;;;;;;;;5059147;28;20007;-87
2024/02/12 14:13:35;;;;;;;;;;;;;;;;;;5062392;28;19908;-87
2024/02/12 14:16:01;;;;;;;;;;;;;;;;;;5058818;28;19962;-88
2024/02/12 14:18:27;;;;;;;;;;;;;;;;;;5059939;28;20280;-88
2024/02/12 14:20:54;;;;;;;;;;;;;;;;;;5063226;28;20316;-88
2024/02/12 14:23:20;;;;;;;;;;;;;;;;;;5059309;28;19956;-88
2024/02/12 14:25:47;;;;;;;;;;;;;;;;;;5059472;28;20413;-88
2024/02/12 14:28:13;;;;;;;;;;;;;;;;;;5061064;28;19916;-87
2024/02/12 14:30:39;;;;;;;;;;;;;;;;;;5060678;28;20306;-86
2024/02/12 14:33:06;;;;;;;;;;;;;;;;;;5059496;28;20003;-86
2024/02/12 14:35:38;;;;;;;;;;;;;;;;;;5059130;28;19916;-85
2024/02/12 14:38:04;;;;;;;;;;;;;;;;;;5056902;28;19952;-87
2024/02/12 14:40:31;;;;;;;;;;;;;;;;;;5056128;28;20426;-87
2024/02/12 14:42:57;;;;;;;;;;;;;;;;;;5049003;28;20370;-87
2024/02/12 14:45:28;;;;;;;;;;;;;;;;;;5051267;28;19931;-88
2024/02/12 14:47:54;;;;;;;;;;;;;;;;;;5063816;28;19924;-88
2024/02/12 14:50:26;;;;;;;;;;;;;;;;;;5061274;28;20001;-87
2024/02/12 14:52:53;;;;;;;;;;;;;;;;;;5061011;28;19951;-88
2024/02/12 14:55:19;;;;;;;;;;;;;;;;;;5064121;28;19908;-88
2024/02/12 14:57:45;;;;;;;;;;;;;;;;;;5050800;28;20402;-89
2024/02/12 15:00:13;;;;;;;;;;;;;;;;;;5056170;28;20248;-90
2024/02/12 15:02:39;;;;;;;;;;;;;;;;;;5060112;28;19909;-87
2024/02/12 15:05:05;;;;;;;;;;;;;;;;;;5057008;28;20437;-90
2024/02/12 15:07:31;;;;;;;;;;;;;;;;;;5059557;28;20382;-88
2024/02/12 15:09:59;;;;;;;;;;;;;;;;;;5065130;28;19917;-89
2024/02/12 15:12:25;;;;;;;;;;;;;;;;;;5056153;28;19924;-86
2024/02/12 15:14:51;;;;;;;;;;;;;;;;;;5067962;28;20019;-88
2024/02/12 15:17:17;;;;;;;;;;;;;;;;;;5054527;28;19921;-88
2024/02/12 15:19:45;;;;;;;;;;;;;;;;;;5063676;28;19913;-89
2024/02/12 15:22:11;;;;;;;;;;;;;;;;;;5064121;28;19913;-88
2024/02/12 15:24:37;;;;;;;;;;;;;;;;;;5067227;28;20400;-88
2024/02/12 15:27:03;;;;;;;;;;;;;;;;;;5062173;28;19916;-89
2024/02/12 15:29:30;;;;;;;;;;;;;;;;;;5058187;28;19913;-89
2024/02/12 15:31:55;;;;;;;;;;;;;;;;;;5060190;28;19916;-88
2024/02/12 15:34:21;;;;;;;;;;;;;;;;;;5059837;28;19921;-87
2024/02/12 15:36:47;;;;;;;;;;;;;;;;;;5057436;28;19931;-87
2024/02/12 15:39:13;;;;;;;;;;;;;;;;;;5056094;28;19920;-87
2024/02/12 15:41:40;;;;;;;;;;;;;;;;;;5057659;28;20371;-85
2024/02/12 15:44:06;;;;;;;;;;;;;;;;;;5055096;28;19928;-87
2024/02/12 15:46:32;;;;;;;;;;;;;;;;;;5056915;28;19912;-88
2024/02/12 15:48:58;;;;;;;;;;;;;;;;;;5057327;28;20488;-87
2024/02/12 15:51:24;;;;;;;;;;;;;;;;;;5057070;28;20287;-88
2024/02/12 15:53:50;;;;;;;;;;;;;;;;;;5049506;28;20012;-86
2024/02/12 15:56:17;;;;;;;;;;;;;;;;;;5046759;28;19920;-87
2024/02/12 15:58:44;;;;;;;;;;;;;;;;;;5054216;28;19913;-90
2024/02/12 16:01:10;;;;;;;;;;;;;;;;;;5054567;28;19917;-87
2024/02/12 16:03:36;;;;;;;;;;;;;;;;;;5057173;28;19916;-88
2024/02/12 16:06:04;;;;;;;;;;;;;;;;;;5054455;28;19917;-90
2024/02/12 16:08:30;;;;;;;;;;;;;;;;;;5056794;28;19924;-88
2024/02/12 16:10:59;;;;;;;;;;;;;;;;;;5055340;28;19912;-88
2024/02/12 16:13:26;;;;;;;;;;;;;;;;;;5064580;28;19913;-90
2024/02/12 16:15:52;;;;;;;;;;;;;;;;;;5059204;28;19919;-88
2024/02/12 16:18:18;;;;;;;;;;;;;;;;;;5052892;28;19913;-93
2024/02/12 16:20:44;;;;;;;;;;;;;;;;;;5055009;28;19966;-91
2024/02/12 16:23:10;;;;;;;;;;;;;;;;;;5067133;28;20072;-92
2024/02/12 16:25:37;;;;;;;;;;;;;;;;;;5058352;28;20356;-92
2024/02/12 16:28:03;;;;;;;;;;;;;;;;;;5057249;28;20375;-91
2024/02/12 16:30:29;;;;;;;;;;;;;;;;;;5054963;28;19912;-92
2024/02/12 16:32:55;;;;;;;;;;;;;;;;;;5035527;28;20397;-91
2024/02/12 16:35:21;;;;;;;;;;;;;;;;;;5052416;28;19948;-91
2024/02/12 16:37:46;;;;;;;;;;;;;;;;;;5052821;28;19970;-89
2024/02/12 16:40:12;;;;;;;;;;;;;;;;;;5052766;28;19920;-90
2024/02/12 16:42:40;;;;;;;;;;;;;;;;;;5060736;28;20388;-90
2024/02/12 16:45:08;;;;;;;;;;;;;;;;;;5063906;28;19921;-91
2024/02/12 16:47:34;;;;;;;;;;;;;;;;;;5065615;28;19940;-91
2024/02/12 16:50:00;;;;;;;;;;;;;;;;;;5064361;28;19921;-90
2024/02/12 16:52:26;;;;;;;;;;;;;;;;;;5069289;28;19922;-92
2024/02/12 16:54:52;;;;;;;;;;;;;;;;;;5072070;28;19923;-90
2024/02/12 16:57:18;;;;;;;;;;;;;;;;;;5082278;28;19901;-90